sensor_id;sensor_type;location;lat;lon;timestamp;temperature;humidity
8717;DHT22;4395;48.554;8.820;2022-12-26T00:01:58;8.10;99.90
8717;DHT22;4395;48.554;8.820;2022-12-26T00:04:03;8.10;99.90
8717;DHT22;4395;48.554;8.820;2022-12-26T00:06:28;8.10;99.90
8717;DHT22;4395;48.554;8.820;2022-12-26T00:08:32;8.10;99.90
8717;DHT22;4395;48.554;8.820;2022-12-26T00:10:36;8.00;99.90
8717;DHT22;4395;48.554;8.820;2022-12-26T00:12:39;8.00;99.90
8717;DHT22;4395;48.554;8.820;2022-12-26T00:14:42;8.00;99.90
8717;DHT22;4395;48.554;8.820;2022-12-26T00:16:46;8.00;99.90
8717;DHT22;4395;48.554;8.820;2022-12-26T00:18:49;8.00;99.90
8717;DHT22;4395;48.554;8.820;2022-12-26T00:20:53;8.00;99.90
8717;DHT22;4395;48.554;8.820;2022-12-26T00:22:56;7.90;99.90
8717;DHT22;4395;48.554;8.820;2022-12-26T00:24:59;8.00;99.90
8717;DHT22;4395;48.554;8.820;2022-12-26T00:27:04;8.00;99.90
8717;DHT22;4395;48.554;8.820;2022-12-26T00:29:07;7.90;99.90
8717;DHT22;4395;48.554;8.820;2022-12-26T00:31:13;7.90;99.90
8717;DHT22;4395;48.554;8.820;2022-12-26T00:33:17;7.90;99.90
8717;DHT22;4395;48.554;8.820;2022-12-26T00:35:21;7.90;99.90
8717;DHT22;4395;48.554;8.820;2022-12-26T00:37:24;7.90;99.90
8717;DHT22;4395;48.554;8.820;2022-12-26T00:39:27;7.80;99.90
8717;DHT22;4395;48.554;8.820;2022-12-26T00:41:30;7.80;99.90
8717;DHT22;4395;48.554;8.820;2022-12-26T00:43:35;7.80;99.90
8717;DHT22;4395;48.554;8.820;2022-12-26T00:45:38;7.80;99.90
8717;DHT22;4395;48.554;8.820;2022-12-26T00:47:46;7.80;99.90
8717;DHT22;4395;48.554;8.820;2022-12-26T00:49:49;7.80;99.90
8717;DHT22;4395;48.554;8.820;2022-12-26T00:52:12;7.70;99.90
8717;DHT22;4395;48.554;8.820;2022-12-26T00:54:15;7.80;99.90
8717;DHT22;4395;48.554;8.820;2022-12-26T00:56:19;7.80;99.90
8717;DHT22;4395;48.554;8.820;2022-12-26T00:58:23;7.70;99.90
8717;DHT22;4395;48.554;8.820;2022-12-26T01:00:28;7.70;99.90
8717;DHT22;4395;48.554;8.820;2022-12-26T01:02:32;7.70;99.90
8717;DHT22;4395;48.554;8.820;2022-12-26T01:04:41;7.70;99.90
8717;DHT22;4395;48.554;8.820;2022-12-26T01:06:44;7.70;99.90
8717;DHT22;4395;48.554;8.820;2022-12-26T01:08:48;7.70;99.90
8717;DHT22;4395;48.554;8.820;2022-12-26T01:10:51;7.70;99.90
8717;DHT22;4395;48.554;8.820;2022-12-26T01:12:54;7.70;99.90
8717;DHT22;4395;48.554;8.820;2022-12-26T01:14:58;7.70;99.90
8717;DHT22;4395;48.554;8.820;2022-12-26T01:17:03;7.80;99.90
8717;DHT22;4395;48.554;8.820;2022-12-26T01:19:06;7.80;99.90
8717;DHT22;4395;48.554;8.820;2022-12-26T01:21:09;7.70;99.90
8717;DHT22;4395;48.554;8.820;2022-12-26T01:23:13;7.80;99.90
8717;DHT22;4395;48.554;8.820;2022-12-26T01:25:17;7.80;99.90
8717;DHT22;4395;48.554;8.820;2022-12-26T01:27:21;7.80;99.90
8717;DHT22;4395;48.554;8.820;2022-12-26T01:29:24;7.80;99.90
8717;DHT22;4395;48.554;8.820;2022-12-26T01:31:28;7.80;99.90
8717;DHT22;4395;48.554;8.820;2022-12-26T01:33:32;7.80;99.90
8717;DHT22;4395;48.554;8.820;2022-12-26T01:35:35;7.80;99.90
8717;DHT22;4395;48.554;8.820;2022-12-26T01:37:38;7.80;99.90
8717;DHT22;4395;48.554;8.820;2022-12-26T01:39:42;7.80;99.90
8717;DHT22;4395;48.554;8.820;2022-12-26T01:41:45;7.80;99.90
8717;DHT22;4395;48.554;8.820;2022-12-26T01:43:55;7.80;99.90
8717;DHT22;4395;48.554;8.820;2022-12-26T01:45:59;7.80;99.90
8717;DHT22;4395;48.554;8.820;2022-12-26T01:48:09;7.90;99.90
8717;DHT22;4395;48.554;8.820;2022-12-26T01:50:37;7.90;99.90
8717;DHT22;4395;48.554;8.820;2022-12-26T01:52:45;7.90;99.90
8717;DHT22;4395;48.554;8.820;2022-12-26T01:54:50;7.90;99.90
8717;DHT22;4395;48.554;8.820;2022-12-26T01:56:54;7.90;99.90
8717;DHT22;4395;48.554;8.820;2022-12-26T01:59:04;7.90;99.90
8717;DHT22;4395;48.554;8.820;2022-12-26T02:01:10;7.90;99.90
8717;DHT22;4395;48.554;8.820;2022-12-26T02:03:14;7.90;99.90
8717;DHT22;4395;48.554;8.820;2022-12-26T02:05:51;7.90;99.90
8717;DHT22;4395;48.554;8.820;2022-12-26T02:07:54;7.90;99.90
8717;DHT22;4395;48.554;8.820;2022-12-26T02:09:56;7.90;99.90
8717;DHT22;4395;48.554;8.820;2022-12-26T02:12:03;7.90;99.90
8717;DHT22;4395;48.554;8.820;2022-12-26T02:14:30;7.90;99.90
8717;DHT22;4395;48.554;8.820;2022-12-26T02:16:35;7.90;99.90
8717;DHT22;4395;48.554;8.820;2022-12-26T02:18:40;8.00;99.90
8717;DHT22;4395;48.554;8.820;2022-12-26T02:20:53;8.00;99.90
8717;DHT22;4395;48.554;8.820;2022-12-26T02:28:53;8.00;99.90
8717;DHT22;4395;48.554;8.820;2022-12-26T02:31:22;8.00;99.90
8717;DHT22;4395;48.554;8.820;2022-12-26T02:33:47;7.90;99.90
8717;DHT22;4395;48.554;8.820;2022-12-26T02:36:21;8.00;99.90
8717;DHT22;4395;48.554;8.820;2022-12-26T02:38:38;8.00;99.90
8717;DHT22;4395;48.554;8.820;2022-12-26T02:40:52;8.00;99.90
8717;DHT22;4395;48.554;8.820;2022-12-26T02:43:08;8.00;99.90
8717;DHT22;4395;48.554;8.820;2022-12-26T02:45:20;8.00;99.90
8717;DHT22;4395;48.554;8.820;2022-12-26T02:47:52;8.10;99.90
8717;DHT22;4395;48.554;8.820;2022-12-26T02:50:05;8.10;99.90
8717;DHT22;4395;48.554;8.820;2022-12-26T02:52:37;8.20;99.90
8717;DHT22;4395;48.554;8.820;2022-12-26T02:55:06;8.20;99.90
8717;DHT22;4395;48.554;8.820;2022-12-26T02:57:33;8.20;99.90
8717;DHT22;4395;48.554;8.820;2022-12-26T03:00:00;8.30;99.90
8717;DHT22;4395;48.554;8.820;2022-12-26T03:02:27;8.30;99.90
8717;DHT22;4395;48.554;8.820;2022-12-26T03:04:54;8.30;99.90
8717;DHT22;4395;48.554;8.820;2022-12-26T03:07:19;8.40;99.90
8717;DHT22;4395;48.554;8.820;2022-12-26T03:09:43;8.40;99.90
8717;DHT22;4395;48.554;8.820;2022-12-26T03:12:08;8.40;99.90
8717;DHT22;4395;48.554;8.820;2022-12-26T03:14:52;8.50;99.90
8717;DHT22;4395;48.554;8.820;2022-12-26T03:17:00;8.50;99.90
8717;DHT22;4395;48.554;8.820;2022-12-26T03:19:25;8.50;99.90
8717;DHT22;4395;48.554;8.820;2022-12-26T03:21:34;8.50;99.90
8717;DHT22;4395;48.554;8.820;2022-12-26T03:23:41;8.50;99.90
8717;DHT22;4395;48.554;8.820;2022-12-26T03:25:50;8.50;99.90
8717;DHT22;4395;48.554;8.820;2022-12-26T03:28:13;8.50;99.90
8717;DHT22;4395;48.554;8.820;2022-12-26T03:30:17;8.50;99.90
8717;DHT22;4395;48.554;8.820;2022-12-26T03:32:41;8.50;99.90
8717;DHT22;4395;48.554;8.820;2022-12-26T03:34:45;8.50;99.90
8717;DHT22;4395;48.554;8.820;2022-12-26T03:39:55;8.50;99.90
8717;DHT22;4395;48.554;8.820;2022-12-26T03:42:30;8.40;99.90
8717;DHT22;4395;48.554;8.820;2022-12-26T03:44:59;8.40;99.90
8717;DHT22;4395;48.554;8.820;2022-12-26T03:47:28;8.40;99.90
8717;DHT22;4395;48.554;8.820;2022-12-26T03:49:53;8.40;99.90
8717;DHT22;4395;48.554;8.820;2022-12-26T03:52:21;8.40;99.90
8717;DHT22;4395;48.554;8.820;2022-12-26T03:54:53;8.40;99.90
8717;DHT22;4395;48.554;8.820;2022-12-26T03:57:18;8.40;99.90
8717;DHT22;4395;48.554;8.820;2022-12-26T03:59:43;8.40;99.90
8717;DHT22;4395;48.554;8.820;2022-12-26T04:02:13;8.40;99.90
8717;DHT22;4395;48.554;8.820;2022-12-26T04:04:37;8.40;99.90
8717;DHT22;4395;48.554;8.820;2022-12-26T04:07:05;8.40;99.90
8717;DHT22;4395;48.554;8.820;2022-12-26T04:09:33;8.40;99.90
8717;DHT22;4395;48.554;8.820;2022-12-26T04:11:59;8.40;99.90
8717;DHT22;4395;48.554;8.820;2022-12-26T04:14:31;8.50;99.90
8717;DHT22;4395;48.554;8.820;2022-12-26T04:17:01;8.40;99.90
8717;DHT22;4395;48.554;8.820;2022-12-26T04:19:47;8.50;99.90
8717;DHT22;4395;48.554;8.820;2022-12-26T04:22:03;8.50;99.90
8717;DHT22;4395;48.554;8.820;2022-12-26T04:24:31;8.50;99.90
8717;DHT22;4395;48.554;8.820;2022-12-26T04:27:00;8.50;99.90
8717;DHT22;4395;48.554;8.820;2022-12-26T04:29:23;8.50;99.90
8717;DHT22;4395;48.554;8.820;2022-12-26T04:31:46;8.50;99.90
8717;DHT22;4395;48.554;8.820;2022-12-26T04:34:14;8.60;99.90
8717;DHT22;4395;48.554;8.820;2022-12-26T04:36:48;8.70;99.90
8717;DHT22;4395;48.554;8.820;2022-12-26T04:39:11;8.60;99.90
8717;DHT22;4395;48.554;8.820;2022-12-26T04:41:34;8.70;99.90
8717;DHT22;4395;48.554;8.820;2022-12-26T04:44:00;8.70;99.90
8717;DHT22;4395;48.554;8.820;2022-12-26T04:46:05;8.80;99.90
8717;DHT22;4395;48.554;8.820;2022-12-26T04:48:10;8.80;99.90
8717;DHT22;4395;48.554;8.820;2022-12-26T04:50:30;8.80;99.90
8717;DHT22;4395;48.554;8.820;2022-12-26T04:52:34;8.80;99.90
8717;DHT22;4395;48.554;8.820;2022-12-26T04:54:55;8.80;99.90
8717;DHT22;4395;48.554;8.820;2022-12-26T04:56:58;8.80;99.90
8717;DHT22;4395;48.554;8.820;2022-12-26T04:59:02;8.80;99.90
8717;DHT22;4395;48.554;8.820;2022-12-26T05:01:05;8.70;99.90
8717;DHT22;4395;48.554;8.820;2022-12-26T05:03:23;8.70;99.90
8717;DHT22;4395;48.554;8.820;2022-12-26T05:05:58;8.60;99.90
8717;DHT22;4395;48.554;8.820;2022-12-26T05:08:23;8.60;99.90
8717;DHT22;4395;48.554;8.820;2022-12-26T05:10:47;8.60;99.90
8717;DHT22;4395;48.554;8.820;2022-12-26T05:12:51;8.60;99.90
8717;DHT22;4395;48.554;8.820;2022-12-26T05:14:56;8.60;99.90
8717;DHT22;4395;48.554;8.820;2022-12-26T05:16:59;8.60;99.90
8717;DHT22;4395;48.554;8.820;2022-12-26T05:19:20;8.60;99.90
8717;DHT22;4395;48.554;8.820;2022-12-26T05:21:41;8.60;99.90
8717;DHT22;4395;48.554;8.820;2022-12-26T05:24:02;8.60;99.90
8717;DHT22;4395;48.554;8.820;2022-12-26T05:26:24;8.60;99.90
8717;DHT22;4395;48.554;8.820;2022-12-26T05:28:45;8.50;99.90
8717;DHT22;4395;48.554;8.820;2022-12-26T05:30:55;8.50;99.90
8717;DHT22;4395;48.554;8.820;2022-12-26T05:32:58;8.50;99.90
8717;DHT22;4395;48.554;8.820;2022-12-26T05:35:19;8.50;99.90
8717;DHT22;4395;48.554;8.820;2022-12-26T05:37:22;8.50;99.90
8717;DHT22;4395;48.554;8.820;2022-12-26T05:39:25;8.60;99.90
8717;DHT22;4395;48.554;8.820;2022-12-26T05:41:29;8.60;99.90
8717;DHT22;4395;48.554;8.820;2022-12-26T05:43:32;8.70;99.90
8717;DHT22;4395;48.554;8.820;2022-12-26T05:45:35;8.70;99.90
8717;DHT22;4395;48.554;8.820;2022-12-26T05:47:39;8.70;99.90
8717;DHT22;4395;48.554;8.820;2022-12-26T05:49:49;8.80;99.90
8717;DHT22;4395;48.554;8.820;2022-12-26T05:51:52;8.80;99.90
8717;DHT22;4395;48.554;8.820;2022-12-26T05:53:55;8.80;99.90
8717;DHT22;4395;48.554;8.820;2022-12-26T05:56:02;8.90;99.90
8717;DHT22;4395;48.554;8.820;2022-12-26T05:58:06;8.90;99.90
8717;DHT22;4395;48.554;8.820;2022-12-26T06:00:10;8.90;99.90
8717;DHT22;4395;48.554;8.820;2022-12-26T06:02:14;8.90;99.90
8717;DHT22;4395;48.554;8.820;2022-12-26T06:04:19;8.90;99.90
8717;DHT22;4395;48.554;8.820;2022-12-26T06:06:24;8.90;99.90
8717;DHT22;4395;48.554;8.820;2022-12-26T06:08:28;8.80;99.90
8717;DHT22;4395;48.554;8.820;2022-12-26T06:10:31;8.90;99.90
8717;DHT22;4395;48.554;8.820;2022-12-26T06:12:35;8.80;99.90
8717;DHT22;4395;48.554;8.820;2022-12-26T06:14:38;8.80;99.90
8717;DHT22;4395;48.554;8.820;2022-12-26T06:16:41;8.80;99.90
8717;DHT22;4395;48.554;8.820;2022-12-26T06:18:45;8.80;99.90
8717;DHT22;4395;48.554;8.820;2022-12-26T06:20:50;8.80;99.90
8717;DHT22;4395;48.554;8.820;2022-12-26T06:22:53;8.80;99.90
8717;DHT22;4395;48.554;8.820;2022-12-26T06:24:56;8.80;99.90
8717;DHT22;4395;48.554;8.820;2022-12-26T06:27:00;8.80;99.90
8717;DHT22;4395;48.554;8.820;2022-12-26T06:29:03;8.70;99.90
8717;DHT22;4395;48.554;8.820;2022-12-26T06:31:08;8.70;99.90
8717;DHT22;4395;48.554;8.820;2022-12-26T06:33:14;8.70;99.90
8717;DHT22;4395;48.554;8.820;2022-12-26T06:35:17;8.70;99.90
8717;DHT22;4395;48.554;8.820;2022-12-26T06:37:22;8.70;99.90
8717;DHT22;4395;48.554;8.820;2022-12-26T06:39:25;8.80;99.90
8717;DHT22;4395;48.554;8.820;2022-12-26T06:41:28;8.70;99.90
8717;DHT22;4395;48.554;8.820;2022-12-26T06:43:31;8.70;99.90
8717;DHT22;4395;48.554;8.820;2022-12-26T06:45:35;8.70;99.90
8717;DHT22;4395;48.554;8.820;2022-12-26T06:47:38;8.70;99.90
8717;DHT22;4395;48.554;8.820;2022-12-26T06:49:41;8.70;99.90
8717;DHT22;4395;48.554;8.820;2022-12-26T06:51:44;8.70;99.90
8717;DHT22;4395;48.554;8.820;2022-12-26T06:53:50;8.70;99.90
8717;DHT22;4395;48.554;8.820;2022-12-26T06:55:54;8.70;99.90
8717;DHT22;4395;48.554;8.820;2022-12-26T06:58:07;8.70;99.90
8717;DHT22;4395;48.554;8.820;2022-12-26T07:00:12;8.70;99.90
8717;DHT22;4395;48.554;8.820;2022-12-26T07:02:16;8.70;99.90
8717;DHT22;4395;48.554;8.820;2022-12-26T07:04:20;8.70;99.90
8717;DHT22;4395;48.554;8.820;2022-12-26T07:06:24;8.70;99.90
8717;DHT22;4395;48.554;8.820;2022-12-26T07:08:29;8.70;99.90
8717;DHT22;4395;48.554;8.820;2022-12-26T07:10:35;8.60;99.90
8717;DHT22;4395;48.554;8.820;2022-12-26T07:12:39;8.80;99.90
8717;DHT22;4395;48.554;8.820;2022-12-26T07:14:42;9.00;99.90
8717;DHT22;4395;48.554;8.820;2022-12-26T07:16:45;9.90;99.90
8717;DHT22;4395;48.554;8.820;2022-12-26T07:18:51;9.50;99.90
8717;DHT22;4395;48.554;8.820;2022-12-26T07:20:55;9.10;99.90
8717;DHT22;4395;48.554;8.820;2022-12-26T07:22:58;8.90;99.90
8717;DHT22;4395;48.554;8.820;2022-12-26T07:25:02;8.80;99.90
8717;DHT22;4395;48.554;8.820;2022-12-26T07:27:07;8.80;99.90
8717;DHT22;4395;48.554;8.820;2022-12-26T07:29:10;8.70;99.90
8717;DHT22;4395;48.554;8.820;2022-12-26T07:31:15;8.80;99.90
8717;DHT22;4395;48.554;8.820;2022-12-26T07:33:19;8.70;99.90
8717;DHT22;4395;48.554;8.820;2022-12-26T07:35:22;8.70;99.90
8717;DHT22;4395;48.554;8.820;2022-12-26T07:37:26;8.70;99.90
8717;DHT22;4395;48.554;8.820;2022-12-26T07:39:29;8.70;99.90
8717;DHT22;4395;48.554;8.820;2022-12-26T07:41:32;8.70;99.90
8717;DHT22;4395;48.554;8.820;2022-12-26T07:43:55;8.70;99.90
8717;DHT22;4395;48.554;8.820;2022-12-26T07:45:58;8.80;99.90
8717;DHT22;4395;48.554;8.820;2022-12-26T07:48:02;8.80;99.90
8717;DHT22;4395;48.554;8.820;2022-12-26T07:50:06;8.80;99.90
8717;DHT22;4395;48.554;8.820;2022-12-26T07:52:09;8.80;99.90
8717;DHT22;4395;48.554;8.820;2022-12-26T07:54:13;8.80;99.90
8717;DHT22;4395;48.554;8.820;2022-12-26T07:56:17;8.80;99.90
8717;DHT22;4395;48.554;8.820;2022-12-26T07:58:20;8.80;99.90
8717;DHT22;4395;48.554;8.820;2022-12-26T08:00:24;8.70;99.90
8717;DHT22;4395;48.554;8.820;2022-12-26T08:02:28;8.70;99.90
8717;DHT22;4395;48.554;8.820;2022-12-26T08:04:32;8.70;99.90
8717;DHT22;4395;48.554;8.820;2022-12-26T08:06:35;8.70;99.90
8717;DHT22;4395;48.554;8.820;2022-12-26T08:08:38;8.70;99.90
8717;DHT22;4395;48.554;8.820;2022-12-26T08:10:57;8.70;99.90
8717;DHT22;4395;48.554;8.820;2022-12-26T08:13:01;8.70;99.90
8717;DHT22;4395;48.554;8.820;2022-12-26T08:15:05;8.70;99.90
8717;DHT22;4395;48.554;8.820;2022-12-26T08:17:12;8.60;99.90
8717;DHT22;4395;48.554;8.820;2022-12-26T08:19:15;8.70;99.90
8717;DHT22;4395;48.554;8.820;2022-12-26T08:21:18;8.70;99.90
8717;DHT22;4395;48.554;8.820;2022-12-26T08:23:21;8.70;99.90
8717;DHT22;4395;48.554;8.820;2022-12-26T08:25:25;8.70;99.90
8717;DHT22;4395;48.554;8.820;2022-12-26T08:27:28;8.60;99.90
8717;DHT22;4395;48.554;8.820;2022-12-26T08:29:31;8.70;99.90
8717;DHT22;4395;48.554;8.820;2022-12-26T08:31:34;8.60;99.90
8717;DHT22;4395;48.554;8.820;2022-12-26T08:33:39;8.70;99.90
8717;DHT22;4395;48.554;8.820;2022-12-26T08:35:42;8.60;99.90
8717;DHT22;4395;48.554;8.820;2022-12-26T08:37:46;8.60;99.90
8717;DHT22;4395;48.554;8.820;2022-12-26T08:39:49;8.60;99.90
8717;DHT22;4395;48.554;8.820;2022-12-26T08:41:53;8.60;99.90
8717;DHT22;4395;48.554;8.820;2022-12-26T08:43:56;8.60;99.90
8717;DHT22;4395;48.554;8.820;2022-12-26T08:46:20;8.60;99.90
8717;DHT22;4395;48.554;8.820;2022-12-26T08:48:24;8.70;99.90
8717;DHT22;4395;48.554;8.820;2022-12-26T08:50:28;8.60;99.90
8717;DHT22;4395;48.554;8.820;2022-12-26T08:52:36;8.60;99.90
8717;DHT22;4395;48.554;8.820;2022-12-26T08:54:41;8.70;99.90
8717;DHT22;4395;48.554;8.820;2022-12-26T08:56:46;8.70;99.90
8717;DHT22;4395;48.554;8.820;2022-12-26T08:58:49;8.70;99.90
8717;DHT22;4395;48.554;8.820;2022-12-26T09:00:53;8.80;99.90
8717;DHT22;4395;48.554;8.820;2022-12-26T09:02:57;8.70;99.90
8717;DHT22;4395;48.554;8.820;2022-12-26T09:05:00;8.80;99.90
8717;DHT22;4395;48.554;8.820;2022-12-26T09:07:06;8.80;99.90
8717;DHT22;4395;48.554;8.820;2022-12-26T09:09:10;8.80;99.90
8717;DHT22;4395;48.554;8.820;2022-12-26T09:11:16;8.80;99.90
8717;DHT22;4395;48.554;8.820;2022-12-26T09:13:21;8.80;99.90
8717;DHT22;4395;48.554;8.820;2022-12-26T09:15:24;8.90;99.90
8717;DHT22;4395;48.554;8.820;2022-12-26T09:17:27;8.90;99.90
8717;DHT22;4395;48.554;8.820;2022-12-26T09:19:31;9.00;99.90
8717;DHT22;4395;48.554;8.820;2022-12-26T09:21:34;8.90;99.90
8717;DHT22;4395;48.554;8.820;2022-12-26T09:23:39;9.00;99.90
8717;DHT22;4395;48.554;8.820;2022-12-26T09:25:43;9.00;99.90
8717;DHT22;4395;48.554;8.820;2022-12-26T09:27:46;9.10;99.90
8717;DHT22;4395;48.554;8.820;2022-12-26T09:29:59;9.10;99.90
8717;DHT22;4395;48.554;8.820;2022-12-26T09:32:02;9.10;99.90
8717;DHT22;4395;48.554;8.820;2022-12-26T09:34:06;9.00;99.90
8717;DHT22;4395;48.554;8.820;2022-12-26T09:36:12;9.00;99.90
8717;DHT22;4395;48.554;8.820;2022-12-26T09:38:16;9.00;99.90
8717;DHT22;4395;48.554;8.820;2022-12-26T09:40:23;9.00;99.90
8717;DHT22;4395;48.554;8.820;2022-12-26T09:42:38;9.00;99.90
8717;DHT22;4395;48.554;8.820;2022-12-26T09:44:51;9.00;99.90
8717;DHT22;4395;48.554;8.820;2022-12-26T09:47:06;8.90;99.90
8717;DHT22;4395;48.554;8.820;2022-12-26T09:49:20;8.90;99.90
8717;DHT22;4395;48.554;8.820;2022-12-26T09:51:25;8.90;99.90
8717;DHT22;4395;48.554;8.820;2022-12-26T09:53:31;9.00;99.90
8717;DHT22;4395;48.554;8.820;2022-12-26T09:55:41;9.00;99.90
8717;DHT22;4395;48.554;8.820;2022-12-26T09:57:51;9.00;99.90
8717;DHT22;4395;48.554;8.820;2022-12-26T10:00:00;9.00;99.90
8717;DHT22;4395;48.554;8.820;2022-12-26T10:02:16;9.00;99.90
8717;DHT22;4395;48.554;8.820;2022-12-26T10:04:23;9.00;99.90
8717;DHT22;4395;48.554;8.820;2022-12-26T10:06:36;9.00;99.90
8717;DHT22;4395;48.554;8.820;2022-12-26T10:09:00;9.00;99.90
8717;DHT22;4395;48.554;8.820;2022-12-26T10:11:14;9.00;99.90
8717;DHT22;4395;48.554;8.820;2022-12-26T10:13:28;9.20;99.90
8717;DHT22;4395;48.554;8.820;2022-12-26T10:15:40;9.10;99.90
8717;DHT22;4395;48.554;8.820;2022-12-26T10:17:50;9.20;99.90
8717;DHT22;4395;48.554;8.820;2022-12-26T10:20:10;9.30;99.90
8717;DHT22;4395;48.554;8.820;2022-12-26T10:22:29;9.50;99.90
8717;DHT22;4395;48.554;8.820;2022-12-26T10:24:40;9.50;99.90
8717;DHT22;4395;48.554;8.820;2022-12-26T10:26:48;9.60;99.90
8717;DHT22;4395;48.554;8.820;2022-12-26T10:28:56;9.60;99.90
8717;DHT22;4395;48.554;8.820;2022-12-26T10:31:05;9.60;99.90
8717;DHT22;4395;48.554;8.820;2022-12-26T10:33:17;9.80;99.90
8717;DHT22;4395;48.554;8.820;2022-12-26T10:35:36;9.70;99.90
8717;DHT22;4395;48.554;8.820;2022-12-26T10:37:42;9.70;99.90
8717;DHT22;4395;48.554;8.820;2022-12-26T10:39:49;9.80;99.90
8717;DHT22;4395;48.554;8.820;2022-12-26T10:41:57;9.70;99.90
8717;DHT22;4395;48.554;8.820;2022-12-26T10:44:01;9.70;99.90
8717;DHT22;4395;48.554;8.820;2022-12-26T10:46:40;11.70;99.90
8717;DHT22;4395;48.554;8.820;2022-12-26T10:48:58;10.60;99.90
8717;DHT22;4395;48.554;8.820;2022-12-26T10:51:02;11.10;99.90
8717;DHT22;4395;48.554;8.820;2022-12-26T10:53:09;10.80;99.90
8717;DHT22;4395;48.554;8.820;2022-12-26T10:55:17;10.70;99.90
8717;DHT22;4395;48.554;8.820;2022-12-26T10:57:35;10.70;99.90
8717;DHT22;4395;48.554;8.820;2022-12-26T10:59:43;10.30;99.90
8717;DHT22;4395;48.554;8.820;2022-12-26T11:01:47;10.10;99.90
8717;DHT22;4395;48.554;8.820;2022-12-26T11:03:53;9.90;99.90
8717;DHT22;4395;48.554;8.820;2022-12-26T11:06:03;9.90;99.90
8717;DHT22;4395;48.554;8.820;2022-12-26T11:08:16;9.80;99.90
8717;DHT22;4395;48.554;8.820;2022-12-26T11:10:23;9.80;99.90
8717;DHT22;4395;48.554;8.820;2022-12-26T11:12:38;9.80;99.90
8717;DHT22;4395;48.554;8.820;2022-12-26T11:14:43;9.80;99.90
8717;DHT22;4395;48.554;8.820;2022-12-26T11:16:48;9.70;99.90
8717;DHT22;4395;48.554;8.820;2022-12-26T11:18:51;9.70;99.90
8717;DHT22;4395;48.554;8.820;2022-12-26T11:21:11;9.80;99.90
8717;DHT22;4395;48.554;8.820;2022-12-26T11:23:22;9.80;99.90
8717;DHT22;4395;48.554;8.820;2022-12-26T11:25:27;9.80;99.90
8717;DHT22;4395;48.554;8.820;2022-12-26T11:27:31;9.80;99.90
8717;DHT22;4395;48.554;8.820;2022-12-26T11:29:35;9.70;99.90
8717;DHT22;4395;48.554;8.820;2022-12-26T11:31:40;9.60;99.90
8717;DHT22;4395;48.554;8.820;2022-12-26T11:33:45;9.50;99.90
8717;DHT22;4395;48.554;8.820;2022-12-26T11:35:51;9.60;99.90
8717;DHT22;4395;48.554;8.820;2022-12-26T11:38:06;9.50;99.90
8717;DHT22;4395;48.554;8.820;2022-12-26T11:40:47;9.50;99.90
8717;DHT22;4395;48.554;8.820;2022-12-26T11:43:14;9.50;99.90
8717;DHT22;4395;48.554;8.820;2022-12-26T11:45:28;9.50;99.90
8717;DHT22;4395;48.554;8.820;2022-12-26T11:47:43;9.50;99.90
8717;DHT22;4395;48.554;8.820;2022-12-26T11:49:56;9.50;99.90
8717;DHT22;4395;48.554;8.820;2022-12-26T11:54:45;9.40;99.90
8717;DHT22;4395;48.554;8.820;2022-12-26T11:57:12;9.40;99.90
8717;DHT22;4395;48.554;8.820;2022-12-26T11:59:21;9.50;99.90
8717;DHT22;4395;48.554;8.820;2022-12-26T12:01:26;9.40;99.90
8717;DHT22;4395;48.554;8.820;2022-12-26T12:03:31;9.40;99.90
8717;DHT22;4395;48.554;8.820;2022-12-26T12:05:49;9.40;99.90
8717;DHT22;4395;48.554;8.820;2022-12-26T12:08:26;9.40;99.90
8717;DHT22;4395;48.554;8.820;2022-12-26T12:13:54;9.40;99.90
8717;DHT22;4395;48.554;8.820;2022-12-26T12:16:11;9.40;99.90
8717;DHT22;4395;48.554;8.820;2022-12-26T12:18:37;9.30;99.90
8717;DHT22;4395;48.554;8.820;2022-12-26T12:20:58;9.30;99.90
8717;DHT22;4395;48.554;8.820;2022-12-26T12:23:27;9.30;99.90
8717;DHT22;4395;48.554;8.820;2022-12-26T12:25:52;9.20;99.90
8717;DHT22;4395;48.554;8.820;2022-12-26T12:28:10;9.20;99.90
8717;DHT22;4395;48.554;8.820;2022-12-26T12:30:25;9.20;99.90
8717;DHT22;4395;48.554;8.820;2022-12-26T12:32:40;9.20;99.90
8717;DHT22;4395;48.554;8.820;2022-12-26T12:37:43;9.20;99.90
8717;DHT22;4395;48.554;8.820;2022-12-26T12:40:03;9.20;99.90
8717;DHT22;4395;48.554;8.820;2022-12-26T12:42:25;9.20;99.90
8717;DHT22;4395;48.554;8.820;2022-12-26T12:44:49;9.10;99.90
8717;DHT22;4395;48.554;8.820;2022-12-26T12:47:05;9.20;99.90
8717;DHT22;4395;48.554;8.820;2022-12-26T12:49:21;9.20;99.90
8717;DHT22;4395;48.554;8.820;2022-12-26T12:51:42;9.20;99.90
8717;DHT22;4395;48.554;8.820;2022-12-26T12:56:28;9.10;99.90
8717;DHT22;4395;48.554;8.820;2022-12-26T12:58:45;9.10;99.90
8717;DHT22;4395;48.554;8.820;2022-12-26T13:00:53;9.10;99.90
8717;DHT22;4395;48.554;8.820;2022-12-26T13:03:04;9.10;99.90
8717;DHT22;4395;48.554;8.820;2022-12-26T13:05:17;9.20;99.90
8717;DHT22;4395;48.554;8.820;2022-12-26T13:07:33;9.20;99.90
8717;DHT22;4395;48.554;8.820;2022-12-26T13:09:49;9.20;99.90
8717;DHT22;4395;48.554;8.820;2022-12-26T13:11:57;9.20;99.90
8717;DHT22;4395;48.554;8.820;2022-12-26T13:14:06;9.10;99.90
8717;DHT22;4395;48.554;8.820;2022-12-26T13:16:19;9.10;99.90
8717;DHT22;4395;48.554;8.820;2022-12-26T13:18:28;9.00;99.90
8717;DHT22;4395;48.554;8.820;2022-12-26T13:20:39;9.00;99.90
8717;DHT22;4395;48.554;8.820;2022-12-26T13:22:48;9.10;99.90
8717;DHT22;4395;48.554;8.820;2022-12-26T13:25:12;9.10;99.90
8717;DHT22;4395;48.554;8.820;2022-12-26T13:27:20;9.20;99.90
8717;DHT22;4395;48.554;8.820;2022-12-26T13:29:37;9.10;99.90
8717;DHT22;4395;48.554;8.820;2022-12-26T13:31:42;9.20;99.90
8717;DHT22;4395;48.554;8.820;2022-12-26T13:33:46;9.20;99.90
8717;DHT22;4395;48.554;8.820;2022-12-26T13:35:55;9.20;99.90
8717;DHT22;4395;48.554;8.820;2022-12-26T13:38:00;9.10;99.90
8717;DHT22;4395;48.554;8.820;2022-12-26T13:40:13;9.10;99.90
8717;DHT22;4395;48.554;8.820;2022-12-26T13:42:31;9.20;99.90
8717;DHT22;4395;48.554;8.820;2022-12-26T13:44:53;9.20;99.90
8717;DHT22;4395;48.554;8.820;2022-12-26T13:46:58;9.20;99.90
8717;DHT22;4395;48.554;8.820;2022-12-26T13:49:02;9.20;99.90
8717;DHT22;4395;48.554;8.820;2022-12-26T13:51:40;9.20;99.90
8717;DHT22;4395;48.554;8.820;2022-12-26T13:53:57;9.30;99.90
8717;DHT22;4395;48.554;8.820;2022-12-26T13:56:03;9.20;99.90
8717;DHT22;4395;48.554;8.820;2022-12-26T13:58:40;9.20;99.90
8717;DHT22;4395;48.554;8.820;2022-12-26T14:00:51;9.20;99.90
8717;DHT22;4395;48.554;8.820;2022-12-26T14:03:30;9.20;99.90
8717;DHT22;4395;48.554;8.820;2022-12-26T14:08:24;9.20;99.90
8717;DHT22;4395;48.554;8.820;2022-12-26T14:10:39;9.20;99.90
8717;DHT22;4395;48.554;8.820;2022-12-26T14:12:58;9.20;99.90
8717;DHT22;4395;48.554;8.820;2022-12-26T14:15:19;9.20;99.90
8717;DHT22;4395;48.554;8.820;2022-12-26T14:17:36;9.20;99.90
8717;DHT22;4395;48.554;8.820;2022-12-26T14:19:54;9.20;99.90
8717;DHT22;4395;48.554;8.820;2022-12-26T14:22:06;9.20;99.90
8717;DHT22;4395;48.554;8.820;2022-12-26T14:24:28;9.20;99.90
8717;DHT22;4395;48.554;8.820;2022-12-26T14:26:44;9.20;99.90
8717;DHT22;4395;48.554;8.820;2022-12-26T14:28:58;9.30;99.90
8717;DHT22;4395;48.554;8.820;2022-12-26T14:31:13;9.30;99.90
8717;DHT22;4395;48.554;8.820;2022-12-26T14:33:26;9.20;99.90
8717;DHT22;4395;48.554;8.820;2022-12-26T14:35:36;9.20;99.90
8717;DHT22;4395;48.554;8.820;2022-12-26T14:37:47;9.10;99.90
8717;DHT22;4395;48.554;8.820;2022-12-26T14:40:28;9.10;99.90
8717;DHT22;4395;48.554;8.820;2022-12-26T14:43:00;9.10;99.90
8717;DHT22;4395;48.554;8.820;2022-12-26T14:45:43;9.10;99.90
8717;DHT22;4395;48.554;8.820;2022-12-26T14:47:48;9.10;99.90
8717;DHT22;4395;48.554;8.820;2022-12-26T14:49:53;9.00;99.90
8717;DHT22;4395;48.554;8.820;2022-12-26T14:52:36;9.00;99.90
8717;DHT22;4395;48.554;8.820;2022-12-26T14:54:42;9.00;99.90